sensor_id;sensor_type;location;lat;lon;timestamp;pressure;altitude;pressure_sealevel;temperature;humidity
35443;BME280;21561;55.654;37.592;2023-04-04T00:00:38;99184.25;;;8.30;93.00
35443;BME280;21561;55.654;37.592;2023-04-04T00:03:05;99182.56;;;8.28;93.36
35443;BME280;21561;55.654;37.592;2023-04-04T00:05:32;99183.41;;;8.27;93.29
35443;BME280;21561;55.654;37.592;2023-04-04T00:08:01;99183.41;;;8.30;92.80
35443;BME280;21561;55.654;37.592;2023-04-04T00:10:28;99178.22;;;8.33;93.01
35443;BME280;21561;55.654;37.592;2023-04-04T00:12:54;99185.16;;;8.26;92.87
35443;BME280;21561;55.654;37.592;2023-04-04T00:15:21;99180.00;;;8.23;92.89
35443;BME280;21561;55.654;37.592;2023-04-04T00:17:48;99183.47;;;8.19;92.90
35443;BME280;21561;55.654;37.592;2023-04-04T00:20:15;99181.72;;;8.18;93.12
35443;BME280;21561;55.654;37.592;2023-04-04T00:22:41;99185.19;;;8.17;93.29
35443;BME280;21561;55.654;37.592;2023-04-04T00:25:08;99183.50;;;8.10;93.14
35443;BME280;21561;55.654;37.592;2023-04-04T00:27:36;99182.66;;;8.06;93.61
35443;BME280;21561;55.654;37.592;2023-04-04T00:30:02;99174.06;;;8.04;93.20
35443;BME280;21561;55.654;37.592;2023-04-04T00:32:29;99179.19;;;8.07;93.20
35443;BME280;21561;55.654;37.592;2023-04-04T00:34:56;99176.63;;;8.10;93.71
35443;BME280;21561;55.654;37.592;2023-04-04T00:37:23;99172.34;;;8.03;93.83
35443;BME280;21561;55.654;37.592;2023-04-04T00:39:49;99175.81;;;7.96;93.99
35443;BME280;21561;55.654;37.592;2023-04-04T00:42:16;99177.53;;;7.95;93.59
35443;BME280;21561;55.654;37.592;2023-04-04T00:44:43;99174.13;;;7.93;95.35
35443;BME280;21561;55.654;37.592;2023-04-04T00:47:09;99179.25;;;7.95;94.19
35443;BME280;21561;55.654;37.592;2023-04-04T00:49:36;99179.28;;;7.92;94.01
35443;BME280;21561;55.654;37.592;2023-04-04T00:52:03;99178.44;;;7.87;94.02
35443;BME280;21561;55.654;37.592;2023-04-04T00:54:33;99172.38;;;7.88;94.06
35443;BME280;21561;55.654;37.592;2023-04-04T00:56:59;99173.28;;;7.83;94.05
35443;BME280;21561;55.654;37.592;2023-04-04T00:59:26;99172.41;;;7.84;94.22
35443;BME280;21561;55.654;37.592;2023-04-04T01:01:54;99171.53;;;7.86;93.94
35443;BME280;21561;55.654;37.592;2023-04-04T01:04:21;99177.59;;;7.84;94.17
35443;BME280;21561;55.654;37.592;2023-04-04T01:06:48;99177.59;;;7.84;94.07
35443;BME280;21561;55.654;37.592;2023-04-04T01:09:16;99169.84;;;7.81;94.23
35443;BME280;21561;55.654;37.592;2023-04-04T01:11:42;99177.59;;;7.81;93.71
35443;BME280;21561;55.654;37.592;2023-04-04T01:14:09;99169.84;;;7.80;93.83
35443;BME280;21561;55.654;37.592;2023-04-04T01:16:36;99172.41;;;7.81;93.85
35443;BME280;21561;55.654;37.592;2023-04-04T01:19:03;99168.09;;;7.83;93.89
35443;BME280;21561;55.654;37.592;2023-04-04T01:21:31;99169.84;;;7.83;94.29
35443;BME280;21561;55.654;37.592;2023-04-04T01:23:59;99174.16;;;7.76;94.58
35443;BME280;21561;55.654;37.592;2023-04-04T01:26:26;99169.00;;;7.73;95.66
35443;BME280;21561;55.654;37.592;2023-04-04T01:28:54;99169.03;;;7.70;95.72
35443;BME280;21561;55.654;37.592;2023-04-04T01:31:27;99171.59;;;7.70;95.48
35443;BME280;21561;55.654;37.592;2023-04-04T01:34:08;99163.84;;;7.70;94.84
35443;BME280;21561;55.654;37.592;2023-04-04T01:36:47;99162.13;;;7.66;94.99
35443;BME280;21561;55.654;37.592;2023-04-04T01:41:48;99163.91;;;7.61;95.28
35443;BME280;21561;55.654;37.592;2023-04-04T01:44:16;99170.78;;;7.56;96.40
35443;BME280;21561;55.654;37.592;2023-04-04T01:46:43;99169.06;;;7.52;97.48
35443;BME280;21561;55.654;37.592;2023-04-04T01:49:09;99166.47;;;7.59;96.74
35443;BME280;21561;55.654;37.592;2023-04-04T01:51:36;99170.78;;;7.50;96.77
35443;BME280;21561;55.654;37.592;2023-04-04T01:54:04;99170.81;;;7.40;100.00
35443;BME280;21561;55.654;37.592;2023-04-04T01:56:30;99166.53;;;7.36;98.72
35443;BME280;21561;55.654;37.592;2023-04-04T01:58:58;99163.09;;;7.36;97.38
35443;BME280;21561;55.654;37.592;2023-04-04T02:01:24;99163.94;;;7.36;96.90
35443;BME280;21561;55.654;37.592;2023-04-04T02:03:51;99162.22;;;7.35;96.94
35443;BME280;21561;55.654;37.592;2023-04-04T02:06:18;99160.47;;;7.37;96.89
35443;BME280;21561;55.654;37.592;2023-04-04T02:08:44;99165.66;;;7.34;97.08
35443;BME280;21561;55.654;37.592;2023-04-04T02:11:11;99162.25;;;7.32;97.27
35443;BME280;21561;55.654;37.592;2023-04-04T02:13:38;99161.38;;;7.27;97.16
35443;BME280;21561;55.654;37.592;2023-04-04T02:16:09;99160.50;;;7.28;97.98
35443;BME280;21561;55.654;37.592;2023-04-04T02:18:36;99160.50;;;7.28;98.42
35443;BME280;21561;55.654;37.592;2023-04-04T02:21:02;99163.97;;;7.22;98.66
35443;BME280;21561;55.654;37.592;2023-04-04T02:23:29;99163.94;;;7.21;98.17
35443;BME280;21561;55.654;37.592;2023-04-04T02:25:56;99160.53;;;7.22;98.22
35443;BME280;21561;55.654;37.592;2023-04-04T02:28:22;99162.25;;;7.20;98.54
35443;BME280;21561;55.654;37.592;2023-04-04T02:30:49;99162.25;;;7.17;99.17
35443;BME280;21561;55.654;37.592;2023-04-04T02:33:16;99160.50;;;7.16;99.08
35443;BME280;21561;55.654;37.592;2023-04-04T02:35:42;99153.63;;;7.19;99.42
35443;BME280;21561;55.654;37.592;2023-04-04T02:38:09;99160.50;;;7.16;99.30
35443;BME280;21561;55.654;37.592;2023-04-04T02:40:36;99151.06;;;7.10;99.60
35443;BME280;21561;55.654;37.592;2023-04-04T02:43:05;99150.22;;;7.10;100.00
35443;BME280;21561;55.654;37.592;2023-04-04T02:45:31;99163.97;;;7.05;100.00
35443;BME280;21561;55.654;37.592;2023-04-04T02:47:58;99155.38;;;7.06;99.72
35443;BME280;21561;55.654;37.592;2023-04-04T02:50:25;99160.56;;;7.03;99.61
35443;BME280;21561;55.654;37.592;2023-04-04T02:52:51;99159.69;;;7.06;99.64
35443;BME280;21561;55.654;37.592;2023-04-04T02:55:20;99162.25;;;7.04;99.77
35443;BME280;21561;55.654;37.592;2023-04-04T02:57:50;99159.66;;;7.01;100.00
35443;BME280;21561;55.654;37.592;2023-04-04T03:00:16;99158.81;;;7.02;100.00
35443;BME280;21561;55.654;37.592;2023-04-04T03:02:43;99163.13;;;7.03;99.76
35443;BME280;21561;55.654;37.592;2023-04-04T03:05:10;99164.84;;;7.06;99.64
35443;BME280;21561;55.654;37.592;2023-04-04T03:07:37;99160.53;;;7.10;99.52
35443;BME280;21561;55.654;37.592;2023-04-04T03:10:03;99163.13;;;7.11;99.19
35443;BME280;21561;55.654;37.592;2023-04-04T03:12:30;99162.25;;;7.14;99.20
35443;BME280;21561;55.654;37.592;2023-04-04T03:14:56;99162.25;;;7.14;99.16
35443;BME280;21561;55.654;37.592;2023-04-04T03:17:24;99160.50;;;7.16;99.07
35443;BME280;21561;55.654;37.592;2023-04-04T03:19:50;99165.69;;;7.19;99.06
35443;BME280;21561;55.654;37.592;2023-04-04T03:22:17;99165.69;;;7.22;98.90
35443;BME280;21561;55.654;37.592;2023-04-04T03:24:44;99161.38;;;7.25;98.83
35443;BME280;21561;55.654;37.592;2023-04-04T03:27:11;99158.81;;;7.29;99.10
35443;BME280;21561;55.654;37.592;2023-04-04T03:29:37;99162.22;;;7.26;99.02
35443;BME280;21561;55.654;37.592;2023-04-04T03:32:04;99162.22;;;7.26;99.12
35443;BME280;21561;55.654;37.592;2023-04-04T03:34:31;99157.06;;;7.26;99.06
35443;BME280;21561;55.654;37.592;2023-04-04T03:36:58;99166.50;;;7.30;98.82
35443;BME280;21561;55.654;37.592;2023-04-04T03:39:28;99165.66;;;7.31;98.88
35443;BME280;21561;55.654;37.592;2023-04-04T03:41:57;99170.84;;;7.31;98.88
35443;BME280;21561;55.654;37.592;2023-04-04T03:44:24;99166.53;;;7.33;98.77
35443;BME280;21561;55.654;37.592;2023-04-04T03:46:50;99171.69;;;7.36;98.78
35443;BME280;21561;55.654;37.592;2023-04-04T03:49:17;99176.00;;;7.34;98.81
35443;BME280;21561;55.654;37.592;2023-04-04T03:51:43;99174.28;;;7.36;98.68
35443;BME280;21561;55.654;37.592;2023-04-04T03:54:10;99174.25;;;7.33;98.74
35443;BME280;21561;55.654;37.592;2023-04-04T03:56:37;99177.72;;;7.32;98.96
35443;BME280;21561;55.654;37.592;2023-04-04T03:59:03;99176.84;;;7.32;99.02
35443;BME280;21561;55.654;37.592;2023-04-04T04:01:30;99173.41;;;7.30;98.89
35443;BME280;21561;55.654;37.592;2023-04-04T04:03:56;99172.56;;;7.32;98.65
35443;BME280;21561;55.654;37.592;2023-04-04T04:06:23;99172.53;;;7.35;98.80
35443;BME280;21561;55.654;37.592;2023-04-04T04:08:50;99174.28;;;7.39;98.46
35443;BME280;21561;55.654;37.592;2023-04-04T04:11:16;99175.97;;;7.37;98.40
35443;BME280;21561;55.654;37.592;2023-04-04T04:13:43;99176.84;;;7.38;98.42
35443;BME280;21561;55.654;37.592;2023-04-04T04:16:10;99175.97;;;7.37;98.50
35443;BME280;21561;55.654;37.592;2023-04-04T04:18:36;99175.97;;;7.37;98.49
35443;BME280;21561;55.654;37.592;2023-04-04T04:21:03;99169.97;;;7.43;98.48
35443;BME280;21561;55.654;37.592;2023-04-04T04:23:30;99171.66;;;7.41;98.48
35443;BME280;21561;55.654;37.592;2023-04-04T04:25:57;99175.09;;;7.46;98.53
35443;BME280;21561;55.654;37.592;2023-04-04T04:28:23;99177.72;;;7.41;98.50
35443;BME280;21561;55.654;37.592;2023-04-04T04:31:06;99170.81;;;7.43;98.33
35443;BME280;21561;55.654;37.592;2023-04-04T04:33:33;99169.09;;;7.45;98.31
35443;BME280;21561;55.654;37.592;2023-04-04T04:36:03;99177.69;;;7.51;98.39
35443;BME280;21561;55.654;37.592;2023-04-04T04:38:31;99180.25;;;7.48;99.37
35443;BME280;21561;55.654;37.592;2023-04-04T04:40:57;99169.09;;;7.49;98.58
35443;BME280;21561;55.654;37.592;2023-04-04T04:43:24;99171.66;;;7.45;98.38
35443;BME280;21561;55.654;37.592;2023-04-04T04:45:51;99177.69;;;7.44;98.23
35443;BME280;21561;55.654;37.592;2023-04-04T04:48:18;99174.25;;;7.45;98.28
35443;BME280;21561;55.654;37.592;2023-04-04T04:50:45;99184.56;;;7.49;98.03
35443;BME280;21561;55.654;37.592;2023-04-04T04:53:15;99188.00;;;7.54;97.83
35443;BME280;21561;55.654;37.592;2023-04-04T04:55:42;99175.06;;;7.58;98.08
35443;BME280;21561;55.654;37.592;2023-04-04T04:58:09;99182.81;;;7.60;97.94
35443;BME280;21561;55.654;37.592;2023-04-04T05:00:36;99184.53;;;7.64;97.83
35443;BME280;21561;55.654;37.592;2023-04-04T05:03:04;99187.09;;;7.72;97.66
35443;BME280;21561;55.654;37.592;2023-04-04T05:05:34;99182.75;;;7.78;97.67
35443;BME280;21561;55.654;37.592;2023-04-04T05:08:00;99176.72;;;7.84;98.16
35443;BME280;21561;55.654;37.592;2023-04-04T05:10:28;99175.81;;;7.96;98.21
35443;BME280;21561;55.654;37.592;2023-04-04T05:12:55;99175.75;;;8.07;97.83
35443;BME280;21561;55.654;37.592;2023-04-04T05:15:21;99170.56;;;8.14;97.70
35443;BME280;21561;55.654;37.592;2023-04-04T05:17:48;99163.63;;;8.22;97.49
35443;BME280;21561;55.654;37.592;2023-04-04T05:20:15;99164.47;;;8.29;97.39
35443;BME280;21561;55.654;37.592;2023-04-04T05:22:42;99162.72;;;8.30;97.20
35443;BME280;21561;55.654;37.592;2023-04-04T05:25:10;99163.56;;;8.33;97.22
35443;BME280;21561;55.654;37.592;2023-04-04T05:27:37;99165.25;;;8.37;97.18
35443;BME280;21561;55.654;37.592;2023-04-04T05:30:04;99164.38;;;8.45;96.98
35443;BME280;21561;55.654;37.592;2023-04-04T05:32:31;99162.63;;;8.50;96.67
35443;BME280;21561;55.654;37.592;2023-04-04T05:34:58;99161.75;;;8.52;96.60
35443;BME280;21561;55.654;37.592;2023-04-04T05:37:24;99171.28;;;8.47;96.59
35443;BME280;21561;55.654;37.592;2023-04-04T05:39:51;99165.22;;;8.47;96.77
35443;BME280;21561;55.654;37.592;2023-04-04T05:42:18;99168.69;;;8.38;95.97
35443;BME280;21561;55.654;37.592;2023-04-04T05:44:44;99175.66;;;8.33;95.87
35443;BME280;21561;55.654;37.592;2023-04-04T05:47:11;99169.66;;;8.25;95.66
35443;BME280;21561;55.654;37.592;2023-04-04T05:49:38;99169.63;;;8.28;95.65
35443;BME280;21561;55.654;37.592;2023-04-04T05:52:04;99169.63;;;8.29;95.30
35443;BME280;21561;55.654;37.592;2023-04-04T05:54:31;99176.50;;;8.35;95.34
35443;BME280;21561;55.654;37.592;2023-04-04T05:56:57;99168.75;;;8.33;94.91
35443;BME280;21561;55.654;37.592;2023-04-04T05:59:24;99168.75;;;8.29;94.94
35443;BME280;21561;55.654;37.592;2023-04-04T06:01:51;99171.34;;;8.32;95.04
35443;BME280;21561;55.654;37.592;2023-04-04T06:04:17;99168.75;;;8.35;94.91
35443;BME280;21561;55.654;37.592;2023-04-04T06:06:44;99166.09;;;8.39;94.81
35443;BME280;21561;55.654;37.592;2023-04-04T06:09:11;99160.94;;;8.39;94.72
35443;BME280;21561;55.654;37.592;2023-04-04T06:11:38;99170.44;;;8.39;94.78
35443;BME280;21561;55.654;37.592;2023-04-04T06:14:04;99171.28;;;8.44;94.68
35443;BME280;21561;55.654;37.592;2023-04-04T06:16:31;99171.25;;;8.50;94.77
35443;BME280;21561;55.654;37.592;2023-04-04T06:18:58;99170.34;;;8.56;94.74
35443;BME280;21561;55.654;37.592;2023-04-04T06:21:24;99174.63;;;8.62;94.72
35443;BME280;21561;55.654;37.592;2023-04-04T06:23:51;99173.75;;;8.66;94.69
35443;BME280;21561;55.654;37.592;2023-04-04T06:26:18;99172.84;;;8.71;94.70
35443;BME280;21561;55.654;37.592;2023-04-04T06:28:48;99170.19;;;8.79;94.67
35443;BME280;21561;55.654;37.592;2023-04-04T06:31:15;99171.84;;;8.86;94.58
35443;BME280;21561;55.654;37.592;2023-04-04T06:33:42;99166.59;;;8.98;94.52
35443;BME280;21561;55.654;37.592;2023-04-04T06:36:09;99172.50;;;9.14;94.51
35443;BME280;21561;55.654;37.592;2023-04-04T06:38:36;99170.63;;;9.30;94.57
35443;BME280;21561;55.654;37.592;2023-04-04T06:41:02;99171.25;;;9.51;94.39
35443;BME280;21561;55.654;37.592;2023-04-04T06:43:29;99169.38;;;9.68;94.08
35443;BME280;21561;55.654;37.592;2023-04-04T06:45:56;99170.91;;;9.85;93.96
35443;BME280;21561;55.654;37.592;2023-04-04T06:48:23;99167.31;;;9.98;93.79
35443;BME280;21561;55.654;37.592;2023-04-04T06:50:49;99168.84;;;10.11;93.58
35443;BME280;21561;55.654;37.592;2023-04-04T06:53:16;99170.41;;;10.25;93.39
35443;BME280;21561;55.654;37.592;2023-04-04T06:55:43;99170.34;;;10.31;93.23
35443;BME280;21561;55.654;37.592;2023-04-04T06:58:09;99168.53;;;10.39;93.21
35443;BME280;21561;55.654;37.592;2023-04-04T07:00:36;99169.22;;;10.50;92.60
35443;BME280;21561;55.654;37.592;2023-04-04T07:03:03;99175.19;;;10.56;92.16
35443;BME280;21561;55.654;37.592;2023-04-04T07:05:30;99168.16;;;10.64;92.17
35443;BME280;21561;55.654;37.592;2023-04-04T07:07:57;99174.94;;;10.73;92.08
35443;BME280;21561;55.654;37.592;2023-04-04T07:10:24;99176.53;;;10.81;91.40
35443;BME280;21561;55.654;37.592;2023-04-04T07:12:51;99174.72;;;10.86;90.84
35443;BME280;21561;55.654;37.592;2023-04-04T07:15:18;99178.13;;;10.92;90.58
35443;BME280;21561;55.654;37.592;2023-04-04T07:17:44;99177.97;;;11.01;90.27
35443;BME280;21561;55.654;37.592;2023-04-04T07:20:11;99178.53;;;11.18;89.80
35443;BME280;21561;55.654;37.592;2023-04-04T07:22:39;99176.59;;;11.31;89.67
35443;BME280;21561;55.654;37.592;2023-04-04T07:25:06;99171.19;;;11.43;89.46
35443;BME280;21561;55.654;37.592;2023-04-04T07:27:33;99178.78;;;11.54;89.12
35443;BME280;21561;55.654;37.592;2023-04-04T07:30:00;99184.56;;;11.69;88.47
35443;BME280;21561;55.654;37.592;2023-04-04T07:32:26;99169.56;;;11.83;85.33
35443;BME280;21561;55.654;37.592;2023-04-04T07:34:54;99177.97;;;11.97;87.50
35443;BME280;21561;55.654;37.592;2023-04-04T07:37:21;99175.13;;;12.10;81.58
35443;BME280;21561;55.654;37.592;2023-04-04T07:39:48;99183.78;;;12.10;85.43
35443;BME280;21561;55.654;37.592;2023-04-04T07:42:15;99176.00;;;12.09;76.05
35443;BME280;21561;55.654;37.592;2023-04-04T07:44:48;99175.03;;;12.13;82.16
35443;BME280;21561;55.654;37.592;2023-04-04T07:47:15;99171.75;;;12.05;82.42
35443;BME280;21561;55.654;37.592;2023-04-04T07:49:43;99162.38;;;11.97;82.52
35443;BME280;21561;55.654;37.592;2023-04-04T07:52:09;99166.63;;;12.00;83.39
35443;BME280;21561;55.654;37.592;2023-04-04T07:54:36;99170.94;;;12.02;82.78
35443;BME280;21561;55.654;37.592;2023-04-04T07:57:05;99173.41;;;12.07;81.75
35443;BME280;21561;55.654;37.592;2023-04-04T07:59:35;99176.72;;;12.17;82.04
35443;BME280;21561;55.654;37.592;2023-04-04T08:02:02;99174.81;;;12.23;81.86
35443;BME280;21561;55.654;37.592;2023-04-04T08:04:28;99168.66;;;12.29;80.51
35443;BME280;21561;55.654;37.592;2023-04-04T08:06:55;99173.75;;;12.32;79.27
35443;BME280;21561;55.654;37.592;2023-04-04T08:09:22;99178.16;;;12.29;78.79
35443;BME280;21561;55.654;37.592;2023-04-04T08:11:48;99179.88;;;12.31;79.79
35443;BME280;21561;55.654;37.592;2023-04-04T08:14:15;99179.09;;;12.26;79.96
35443;BME280;21561;55.654;37.592;2023-04-04T08:16:42;99180.09;;;12.20;78.62
35443;BME280;21561;55.654;37.592;2023-04-04T08:19:09;99178.28;;;12.24;79.70
35443;BME280;21561;55.654;37.592;2023-04-04T08:21:35;99171.97;;;12.34;80.03
35443;BME280;21561;55.654;37.592;2023-04-04T08:24:02;99176.06;;;12.46;79.59
35443;BME280;21561;55.654;37.592;2023-04-04T08:26:29;99172.47;;;12.52;79.07
35443;BME280;21561;55.654;37.592;2023-04-04T08:28:55;99173.16;;;12.60;79.08
35443;BME280;21561;55.654;37.592;2023-04-04T08:31:22;99177.94;;;12.78;78.54
35443;BME280;21561;55.654;37.592;2023-04-04T08:33:49;99177.47;;;12.97;78.06
35443;BME280;21561;55.654;37.592;2023-04-04T08:36:16;99173.53;;;13.16;77.75
35443;BME280;21561;55.654;37.592;2023-04-04T08:38:43;99174.94;;;13.30;78.43
35443;BME280;21561;55.654;37.592;2023-04-04T08:41:10;99172.94;;;13.41;78.01
35443;BME280;21561;55.654;37.592;2023-04-04T08:43:37;99171.81;;;13.51;78.18
35443;BME280;21561;55.654;37.592;2023-04-04T08:46:06;99183.56;;;13.66;78.15
35443;BME280;21561;55.654;37.592;2023-04-04T08:48:36;99175.25;;;13.83;77.50
35443;BME280;21561;55.654;37.592;2023-04-04T08:51:04;99172.22;;;13.99;77.28
35443;BME280;21561;55.654;37.592;2023-04-04T08:53:34;99178.09;;;14.07;77.01
35443;BME280;21561;55.654;37.592;2023-04-04T08:56:02;99178.63;;;14.18;77.09
35443;BME280;21561;55.654;37.592;2023-04-04T08:58:29;99179.06;;;14.32;76.33
35443;BME280;21561;55.654;37.592;2023-04-04T09:00:56;99187.44;;;14.44;75.97
35443;BME280;21561;55.654;37.592;2023-04-04T09:03:24;99177.41;;;14.60;76.00
35443;BME280;21561;55.654;37.592;2023-04-04T09:05:56;99183.41;;;14.63;75.61
35443;BME280;21561;55.654;37.592;2023-04-04T09:08:23;99188.53;;;14.66;75.14
35443;BME280;21561;55.654;37.592;2023-04-04T09:10:50;99191.13;;;14.66;75.84
35443;BME280;21561;55.654;37.592;2023-04-04T09:13:17;99196.44;;;14.63;75.10
35443;BME280;21561;55.654;37.592;2023-04-04T09:15:48;99196.56;;;14.59;75.45
35443;BME280;21561;55.654;37.592;2023-04-04T09:18:15;99207.16;;;14.54;75.43
35443;BME280;21561;55.654;37.592;2023-04-04T09:20:42;99196.69;;;14.54;75.16
35443;BME280;21561;55.654;37.592;2023-04-04T09:23:10;99204.44;;;14.57;74.65
35443;BME280;21561;55.654;37.592;2023-04-04T09:25:45;99207.78;;;14.62;74.75
35443;BME280;21561;55.654;37.592;2023-04-04T09:28:28;99199.63;;;14.73;74.25
35443;BME280;21561;55.654;37.592;2023-04-04T09:30:55;99203.16;;;14.72;73.24
35443;BME280;21561;55.654;37.592;2023-04-04T09:33:22;99204.19;;;14.66;73.67
35443;BME280;21561;55.654;37.592;2023-04-04T09:36:01;99209.59;;;14.60;73.23
35443;BME280;21561;55.654;37.592;2023-04-04T09:38:28;99206.16;;;14.58;71.83
35443;BME280;21561;55.654;37.592;2023-04-04T09:40:56;99207.78;;;14.62;71.77
35443;BME280;21561;55.654;37.592;2023-04-04T09:43:23;99207.75;;;14.64;71.61
35443;BME280;21561;55.654;37.592;2023-04-04T09:45:50;99212.75;;;14.72;71.57
35443;BME280;21561;55.654;37.592;2023-04-04T09:48:27;99194.25;;;14.78;66.53
35443;BME280;21561;55.654;37.592;2023-04-04T09:50:54;99204.00;;;14.73;65.12
35443;BME280;21561;55.654;37.592;2023-04-04T09:53:23;99176.31;;;14.67;61.82
35443;BME280;21561;55.654;37.592;2023-04-04T09:55:50;99211.28;;;14.63;66.79
35443;BME280;21561;55.654;37.592;2023-04-04T09:58:18;99164.66;;;14.49;60.48
35443;BME280;21561;55.654;37.592;2023-04-04T10:00:49;99199.19;;;14.29;62.87
35443;BME280;21561;55.654;37.592;2023-04-04T10:03:17;99224.88;;;14.13;66.58
35443;BME280;21561;55.654;37.592;2023-04-04T10:05:47;99221.38;;;14.14;67.66
35443;BME280;21561;55.654;37.592;2023-04-04T10:08:20;99208.94;;;14.22;66.63
35443;BME280;21561;55.654;37.592;2023-04-04T10:10:48;99207.56;;;14.40;67.18
35443;BME280;21561;55.654;37.592;2023-04-04T10:13:35;99211.09;;;14.67;66.47
35443;BME280;21561;55.654;37.592;2023-04-04T10:16:02;99208.44;;;14.97;65.68
35443;BME280;21561;55.654;37.592;2023-04-04T10:18:30;99187.53;;;15.24;63.45
35443;BME280;21561;55.654;37.592;2023-04-04T10:20:58;99068.06;;;15.27;54.37
35443;BME280;21561;55.654;37.592;2023-04-04T10:23:40;99041.44;;;15.16;52.60
35443;BME280;21561;55.654;37.592;2023-04-04T10:26:07;99137.59;;;15.06;56.61
35443;BME280;21561;55.654;37.592;2023-04-04T10:28:34;99245.06;;;14.96;61.61
35443;BME280;21561;55.654;37.592;2023-04-04T10:33:59;99173.38;;;14.78;57.06
35443;BME280;21561;55.654;37.592;2023-04-04T10:36:35;99099.94;;;14.60;53.96
35443;BME280;21561;55.654;37.592;2023-04-04T10:39:07;99247.94;;;14.58;63.10
35443;BME280;21561;55.654;37.592;2023-04-04T10:41:38;99235.53;;;14.66;62.90
35443;BME280;21561;55.654;37.592;2023-04-04T10:44:48;99214.44;;;14.73;62.97
35443;BME280;21561;55.654;37.592;2023-04-04T10:46:56;99226.22;;;14.86;63.42
35443;BME280;21561;55.654;37.592;2023-04-04T10:49:24;99232.75;;;14.99;63.52
35443;BME280;21561;55.654;37.592;2023-04-04T10:51:51;99225.53;;;15.07;62.82
35443;BME280;21561;55.654;37.592;2023-04-04T10:54:22;99222.25;;;15.01;62.07
35443;BME280;21561;55.654;37.592;2023-04-04T10:56:49;99221.47;;;14.99;62.80
35443;BME280;21561;55.654;37.592;2023-04-04T10:59:16;99217.19;;;14.96;63.24
35443;BME280;21561;55.654;37.592;2023-04-04T11:01:53;99226.03;;;14.92;63.59
35443;BME280;21561;55.654;37.592;2023-04-04T11:04:20;99222.41;;;14.96;63.34
35443;BME280;21561;55.654;37.592;2023-04-04T11:07:03;99216.25;;;14.99;63.26
35443;BME280;21561;55.654;37.592;2023-04-04T11:09:49;99217.13;;;14.98;63.38
35443;BME280;21561;55.654;37.592;2023-04-04T11:12:19;99224.41;;;14.88;63.87
35443;BME280;21561;55.654;37.592;2023-04-04T11:20:09;99227.38;;;14.46;63.03
35443;BME280;21561;55.654;37.592;2023-04-04T11:22:36;99222.09;;;14.49;63.55
35443;BME280;21561;55.654;37.592;2023-04-04T11:27:48;99202.38;;;14.68;62.52
35443;BME280;21561;55.654;37.592;2023-04-04T11:30:16;99061.69;;;14.59;53.56
35443;BME280;21561;55.654;37.592;2023-04-04T11:32:46;99215.41;;;14.39;59.68
35443;BME280;21561;55.654;37.592;2023-04-04T11:35:31;99219.47;;;14.19;59.95
35443;BME280;21561;55.654;37.592;2023-04-04T11:37:58;99226.59;;;14.14;61.46
35443;BME280;21561;55.654;37.592;2023-04-04T11:40:36;99197.25;;;14.06;59.72
35443;BME280;21561;55.654;37.592;2023-04-04T11:43:06;99182.63;;;14.00;58.58
35443;BME280;21561;55.654;37.592;2023-04-04T11:45:33;99213.06;;;14.00;60.55
35443;BME280;21561;55.654;37.592;2023-04-04T11:48:00;99147.31;;;13.88;55.67
35443;BME280;21561;55.654;37.592;2023-04-04T11:50:33;99148.38;;;13.81;55.85
35443;BME280;21561;55.654;37.592;2023-04-04T11:53:03;99217.88;;;13.84;58.94
35443;BME280;21561;55.654;37.592;2023-04-04T11:55:30;99232.38;;;13.92;60.39
35443;BME280;21561;55.654;37.592;2023-04-04T11:58:04;99217.47;;;13.98;59.88
35443;BME280;21561;55.654;37.592;2023-04-04T12:00:31;99228.69;;;14.00;60.59
35443;BME280;21561;55.654;37.592;2023-04-04T12:03:00;99212.22;;;13.99;59.44
35443;BME280;21561;55.654;37.592;2023-04-04T12:05:27;99227.00;;;13.99;60.68
35443;BME280;21561;55.654;37.592;2023-04-04T12:07:56;99225.22;;;14.01;61.45
35443;BME280;21561;55.654;37.592;2023-04-04T12:10:23;99224.94;;;14.10;61.35
35443;BME280;21561;55.654;37.592;2023-04-04T12:12:49;99215.97;;;14.20;60.37
35443;BME280;21561;55.654;37.592;2023-04-04T12:15:20;99220.91;;;14.29;60.67
35443;BME280;21561;55.654;37.592;2023-04-04T12:17:47;99190.38;;;14.33;58.23
35443;BME280;21561;55.654;37.592;2023-04-04T12:20:14;99152.97;;;14.32;55.91
35443;BME280;21561;55.654;37.592;2023-04-04T12:22:41;99233.81;;;14.36;60.30
35443;BME280;21561;55.654;37.592;2023-04-04T12:25:10;99231.72;;;14.47;60.30
35443;BME280;21561;55.654;37.592;2023-04-04T12:27:38;99230.47;;;14.60;60.58
35443;BME280;21561;55.654;37.592;2023-04-04T12:30:06;99234.41;;;14.75;60.65
35443;BME280;21561;55.654;37.592;2023-04-04T12:32:43;99239.13;;;14.91;61.33
35443;BME280;21561;55.654;37.592;2023-04-04T12:35:10;99104.66;;;15.02;52.49
35443;BME280;21561;55.654;37.592;2023-04-04T12:37:38;99235.69;;;15.17;58.87
35443;BME280;21561;55.654;37.592;2023-04-04T12:40:09;99199.00;;;15.20;57.10
35443;BME280;21561;55.654;37.592;2023-04-04T12:42:35;99232.06;;;15.21;58.92
35443;BME280;21561;55.654;37.592;2023-04-04T12:45:02;99105.13;;;15.14;52.50
35443;BME280;21561;55.654;37.592;2023-04-04T12:47:30;99244.81;;;15.03;58.19
35443;BME280;21561;55.654;37.592;2023-04-04T12:49:57;99260.78;;;14.94;59.02
35443;BME280;21561;55.654;37.592;2023-04-04T12:52:27;99228.75;;;14.87;57.69
35443;BME280;21561;55.654;37.592;2023-04-04T12:54:58;99262.88;;;14.83;60.35
35443;BME280;21561;55.654;37.592;2023-04-04T12:57:34;99250.81;;;14.79;60.29
35443;BME280;21561;55.654;37.592;2023-04-04T13:00:02;99231.34;;;14.89;59.61
35443;BME280;21561;55.654;37.592;2023-04-04T13:02:29;99241.50;;;14.98;59.64
35443;BME280;21561;55.654;37.592;2023-04-04T13:04:57;99236.19;;;15.01;58.88
35443;BME280;21561;55.654;37.592;2023-04-04T13:07:24;99249.88;;;15.10;59.74
35443;BME280;21561;55.654;37.592;2023-04-04T13:09:53;99238.19;;;15.20;58.27
35443;BME280;21561;55.654;37.592;2023-04-04T13:12:20;99230.13;;;15.27;58.33